sensor_id;sensor_type;location;lat;lon;timestamp;P1;durP1;ratioP1;P2;durP2;ratioP2
52170;SDS011;38689;47.552;18.820;2023-05-29T00:02:14;6.65;;;3.12;;
52170;SDS011;38689;47.552;18.820;2023-05-29T00:04:40;4.80;;;2.83;;
52170;SDS011;38689;47.552;18.820;2023-05-29T00:07:06;6.12;;;3.22;;
52170;SDS011;38689;47.552;18.820;2023-05-29T00:09:32;4.28;;;2.72;;
52170;SDS011;38689;47.552;18.820;2023-05-29T00:11:58;5.70;;;3.00;;
52170;SDS011;38689;47.552;18.820;2023-05-29T00:14:24;6.18;;;3.10;;
52170;SDS011;38689;47.552;18.820;2023-05-29T00:16:51;6.15;;;3.10;;
52170;SDS011;38689;47.552;18.820;2023-05-29T00:19:17;5.87;;;3.20;;
52170;SDS011;38689;47.552;18.820;2023-05-29T00:21:45;4.80;;;3.28;;
52170;SDS011;38689;47.552;18.820;2023-05-29T00:24:16;5.70;;;2.92;;
52170;SDS011;38689;47.552;18.820;2023-05-29T00:26:42;7.85;;;3.45;;
52170;SDS011;38689;47.552;18.820;2023-05-29T00:29:09;6.07;;;2.92;;
52170;SDS011;38689;47.552;18.820;2023-05-29T00:31:35;8.20;;;2.90;;
52170;SDS011;38689;47.552;18.820;2023-05-29T00:34:02;7.55;;;3.20;;
52170;SDS011;38689;47.552;18.820;2023-05-29T00:36:28;4.55;;;2.67;;
52170;SDS011;38689;47.552;18.820;2023-05-29T00:38:55;5.55;;;2.90;;
52170;SDS011;38689;47.552;18.820;2023-05-29T00:41:21;5.80;;;3.40;;
52170;SDS011;38689;47.552;18.820;2023-05-29T00:43:47;6.32;;;3.12;;
52170;SDS011;38689;47.552;18.820;2023-05-29T00:46:13;6.62;;;3.40;;
52170;SDS011;38689;47.552;18.820;2023-05-29T00:48:44;5.00;;;3.10;;
52170;SDS011;38689;47.552;18.820;2023-05-29T00:51:10;5.60;;;3.00;;
52170;SDS011;38689;47.552;18.820;2023-05-29T00:53:38;7.87;;;3.30;;
52170;SDS011;38689;47.552;18.820;2023-05-29T00:56:04;6.10;;;3.17;;
52170;SDS011;38689;47.552;18.820;2023-05-29T00:58:31;6.18;;;3.33;;
52170;SDS011;38689;47.552;18.820;2023-05-29T01:00:57;5.07;;;2.90;;
52170;SDS011;38689;47.552;18.820;2023-05-29T01:03:23;6.60;;;3.03;;
52170;SDS011;38689;47.552;18.820;2023-05-29T01:05:50;5.60;;;3.00;;
52170;SDS011;38689;47.552;18.820;2023-05-29T01:08:17;5.20;;;3.00;;
52170;SDS011;38689;47.552;18.820;2023-05-29T01:10:44;7.40;;;3.15;;
52170;SDS011;38689;47.552;18.820;2023-05-29T01:13:24;5.90;;;3.00;;
52170;SDS011;38689;47.552;18.820;2023-05-29T01:15:58;6.03;;;2.90;;
52170;SDS011;38689;47.552;18.820;2023-05-29T01:21:14;5.20;;;3.12;;
52170;SDS011;38689;47.552;18.820;2023-05-29T01:23:53;6.57;;;3.25;;
52170;SDS011;38689;47.552;18.820;2023-05-29T01:29:12;6.25;;;3.20;;
52170;SDS011;38689;47.552;18.820;2023-05-29T01:31:42;5.72;;;3.05;;
52170;SDS011;38689;47.552;18.820;2023-05-29T01:34:09;5.62;;;2.83;;
52170;SDS011;38689;47.552;18.820;2023-05-29T01:36:36;5.65;;;3.25;;
52170;SDS011;38689;47.552;18.820;2023-05-29T01:39:02;6.47;;;3.20;;
52170;SDS011;38689;47.552;18.820;2023-05-29T01:41:28;7.20;;;3.17;;
52170;SDS011;38689;47.552;18.820;2023-05-29T01:43:55;6.28;;;3.03;;
52170;SDS011;38689;47.552;18.820;2023-05-29T01:46:22;5.22;;;2.80;;
52170;SDS011;38689;47.552;18.820;2023-05-29T01:48:48;4.80;;;2.90;;
52170;SDS011;38689;47.552;18.820;2023-05-29T01:51:14;5.45;;;2.90;;
52170;SDS011;38689;47.552;18.820;2023-05-29T01:53:41;6.43;;;3.12;;
52170;SDS011;38689;47.552;18.820;2023-05-29T01:56:07;4.20;;;2.60;;
52170;SDS011;38689;47.552;18.820;2023-05-29T01:58:34;5.28;;;2.90;;
52170;SDS011;38689;47.552;18.820;2023-05-29T02:01:03;6.00;;;3.03;;
52170;SDS011;38689;47.552;18.820;2023-05-29T02:03:32;4.97;;;3.08;;
52170;SDS011;38689;47.552;18.820;2023-05-29T02:05:58;6.80;;;3.40;;
52170;SDS011;38689;47.552;18.820;2023-05-29T02:08:26;5.95;;;3.12;;
52170;SDS011;38689;47.552;18.820;2023-05-29T02:10:52;7.60;;;3.17;;
52170;SDS011;38689;47.552;18.820;2023-05-29T02:13:18;4.45;;;2.90;;
52170;SDS011;38689;47.552;18.820;2023-05-29T02:15:46;6.37;;;3.30;;
52170;SDS011;38689;47.552;18.820;2023-05-29T02:18:15;6.70;;;3.20;;
52170;SDS011;38689;47.552;18.820;2023-05-29T02:20:42;5.18;;;3.20;;
52170;SDS011;38689;47.552;18.820;2023-05-29T02:23:09;5.28;;;3.15;;
52170;SDS011;38689;47.552;18.820;2023-05-29T02:25:35;6.25;;;3.20;;
52170;SDS011;38689;47.552;18.820;2023-05-29T02:28:01;5.80;;;3.15;;
52170;SDS011;38689;47.552;18.820;2023-05-29T02:30:28;8.35;;;3.33;;
52170;SDS011;38689;47.552;18.820;2023-05-29T02:32:54;7.12;;;3.42;;
52170;SDS011;38689;47.552;18.820;2023-05-29T02:35:20;6.55;;;3.20;;
52170;SDS011;38689;47.552;18.820;2023-05-29T02:37:48;5.60;;;2.87;;
52170;SDS011;38689;47.552;18.820;2023-05-29T02:40:15;6.00;;;3.12;;
52170;SDS011;38689;47.552;18.820;2023-05-29T02:42:41;5.87;;;3.10;;
52170;SDS011;38689;47.552;18.820;2023-05-29T02:45:08;6.40;;;3.50;;
52170;SDS011;38689;47.552;18.820;2023-05-29T02:47:34;6.28;;;3.58;;
52170;SDS011;38689;47.552;18.820;2023-05-29T02:50:01;9.23;;;3.75;;
52170;SDS011;38689;47.552;18.820;2023-05-29T02:52:28;6.72;;;3.20;;
52170;SDS011;38689;47.552;18.820;2023-05-29T02:54:55;5.12;;;3.55;;
52170;SDS011;38689;47.552;18.820;2023-05-29T02:57:22;6.40;;;3.72;;
52170;SDS011;38689;47.552;18.820;2023-05-29T02:59:48;5.43;;;3.28;;
52170;SDS011;38689;47.552;18.820;2023-05-29T03:02:14;6.22;;;3.47;;
52170;SDS011;38689;47.552;18.820;2023-05-29T03:04:40;7.87;;;3.55;;
52170;SDS011;38689;47.552;18.820;2023-05-29T03:07:06;6.10;;;3.42;;
52170;SDS011;38689;47.552;18.820;2023-05-29T03:09:35;6.65;;;3.70;;
52170;SDS011;38689;47.552;18.820;2023-05-29T03:12:01;6.47;;;3.40;;
52170;SDS011;38689;47.552;18.820;2023-05-29T03:14:27;5.50;;;3.37;;
52170;SDS011;38689;47.552;18.820;2023-05-29T03:16:53;6.15;;;3.30;;
52170;SDS011;38689;47.552;18.820;2023-05-29T03:19:19;6.40;;;3.70;;
52170;SDS011;38689;47.552;18.820;2023-05-29T03:21:46;6.75;;;3.83;;
52170;SDS011;38689;47.552;18.820;2023-05-29T03:24:12;5.87;;;3.55;;
52170;SDS011;38689;47.552;18.820;2023-05-29T03:26:41;6.43;;;3.40;;
52170;SDS011;38689;47.552;18.820;2023-05-29T03:29:07;5.25;;;3.42;;
52170;SDS011;38689;47.552;18.820;2023-05-29T03:31:33;5.47;;;3.30;;
52170;SDS011;38689;47.552;18.820;2023-05-29T03:34:00;8.00;;;3.80;;
52170;SDS011;38689;47.552;18.820;2023-05-29T03:36:26;7.18;;;3.87;;
52170;SDS011;38689;47.552;18.820;2023-05-29T03:38:52;5.40;;;3.70;;
52170;SDS011;38689;47.552;18.820;2023-05-29T03:41:18;6.97;;;3.83;;
52170;SDS011;38689;47.552;18.820;2023-05-29T03:43:44;7.55;;;3.75;;
52170;SDS011;38689;47.552;18.820;2023-05-29T03:46:10;7.47;;;3.65;;
52170;SDS011;38689;47.552;18.820;2023-05-29T03:48:36;5.93;;;3.83;;
52170;SDS011;38689;47.552;18.820;2023-05-29T03:51:02;6.97;;;3.97;;
52170;SDS011;38689;47.552;18.820;2023-05-29T03:53:30;5.82;;;3.67;;
52170;SDS011;38689;47.552;18.820;2023-05-29T03:55:56;5.85;;;3.72;;
52170;SDS011;38689;47.552;18.820;2023-05-29T03:58:22;8.15;;;3.83;;
52170;SDS011;38689;47.552;18.820;2023-05-29T04:00:48;6.90;;;3.70;;
52170;SDS011;38689;47.552;18.820;2023-05-29T04:03:14;7.87;;;3.80;;
52170;SDS011;38689;47.552;18.820;2023-05-29T04:05:41;6.43;;;3.90;;
52170;SDS011;38689;47.552;18.820;2023-05-29T04:08:07;6.28;;;3.83;;
52170;SDS011;38689;47.552;18.820;2023-05-29T04:10:34;7.20;;;4.05;;
52170;SDS011;38689;47.552;18.820;2023-05-29T04:13:00;8.05;;;4.20;;
52170;SDS011;38689;47.552;18.820;2023-05-29T04:15:27;6.68;;;4.28;;
52170;SDS011;38689;47.552;18.820;2023-05-29T04:17:53;6.05;;;3.90;;
52170;SDS011;38689;47.552;18.820;2023-05-29T04:20:20;6.75;;;3.90;;
52170;SDS011;38689;47.552;18.820;2023-05-29T04:22:46;7.37;;;4.07;;
52170;SDS011;38689;47.552;18.820;2023-05-29T04:25:12;8.65;;;4.40;;
52170;SDS011;38689;47.552;18.820;2023-05-29T04:27:39;8.80;;;3.87;;
52170;SDS011;38689;47.552;18.820;2023-05-29T04:30:06;9.73;;;4.78;;
52170;SDS011;38689;47.552;18.820;2023-05-29T04:32:33;7.65;;;4.40;;
52170;SDS011;38689;47.552;18.820;2023-05-29T04:35:00;8.23;;;4.32;;
52170;SDS011;38689;47.552;18.820;2023-05-29T04:37:28;8.25;;;4.45;;
52170;SDS011;38689;47.552;18.820;2023-05-29T04:39:55;8.80;;;4.43;;
52170;SDS011;38689;47.552;18.820;2023-05-29T04:42:23;8.88;;;4.30;;
52170;SDS011;38689;47.552;18.820;2023-05-29T04:44:53;7.80;;;4.47;;
52170;SDS011;38689;47.552;18.820;2023-05-29T04:47:19;8.95;;;4.62;;
52170;SDS011;38689;47.552;18.820;2023-05-29T04:49:45;8.00;;;4.60;;
52170;SDS011;38689;47.552;18.820;2023-05-29T04:52:16;7.35;;;4.30;;
52170;SDS011;38689;47.552;18.820;2023-05-29T04:54:42;7.22;;;4.30;;
52170;SDS011;38689;47.552;18.820;2023-05-29T04:57:08;7.37;;;4.37;;
52170;SDS011;38689;47.552;18.820;2023-05-29T04:59:34;7.75;;;4.53;;
52170;SDS011;38689;47.552;18.820;2023-05-29T05:02:01;6.53;;;4.15;;
52170;SDS011;38689;47.552;18.820;2023-05-29T05:04:27;6.90;;;4.30;;
52170;SDS011;38689;47.552;18.820;2023-05-29T05:06:53;8.38;;;4.20;;
52170;SDS011;38689;47.552;18.820;2023-05-29T05:09:19;7.43;;;4.43;;
52170;SDS011;38689;47.552;18.820;2023-05-29T05:11:45;7.15;;;4.40;;
52170;SDS011;38689;47.552;18.820;2023-05-29T05:14:11;6.22;;;4.03;;
52170;SDS011;38689;47.552;18.820;2023-05-29T05:16:37;6.50;;;3.78;;
52170;SDS011;38689;47.552;18.820;2023-05-29T05:19:03;7.57;;;4.30;;
52170;SDS011;38689;47.552;18.820;2023-05-29T05:21:29;5.75;;;3.97;;
52170;SDS011;38689;47.552;18.820;2023-05-29T05:23:57;7.70;;;4.28;;
52170;SDS011;38689;47.552;18.820;2023-05-29T05:26:23;7.50;;;4.07;;
52170;SDS011;38689;47.552;18.820;2023-05-29T05:28:49;7.75;;;4.37;;
52170;SDS011;38689;47.552;18.820;2023-05-29T05:31:15;6.22;;;4.00;;
52170;SDS011;38689;47.552;18.820;2023-05-29T05:33:41;6.62;;;4.00;;
52170;SDS011;38689;47.552;18.820;2023-05-29T05:36:07;5.57;;;3.75;;
52170;SDS011;38689;47.552;18.820;2023-05-29T05:38:33;7.72;;;4.10;;
52170;SDS011;38689;47.552;18.820;2023-05-29T05:40:59;7.45;;;4.00;;
52170;SDS011;38689;47.552;18.820;2023-05-29T05:43:25;8.07;;;4.25;;
52170;SDS011;38689;47.552;18.820;2023-05-29T05:45:52;6.68;;;3.92;;
52170;SDS011;38689;47.552;18.820;2023-05-29T05:48:18;6.32;;;3.72;;
52170;SDS011;38689;47.552;18.820;2023-05-29T05:50:45;7.10;;;3.90;;
52170;SDS011;38689;47.552;18.820;2023-05-29T05:53:11;5.72;;;3.72;;
52170;SDS011;38689;47.552;18.820;2023-05-29T05:55:37;6.47;;;3.92;;
52170;SDS011;38689;47.552;18.820;2023-05-29T05:58:03;8.20;;;3.97;;
52170;SDS011;38689;47.552;18.820;2023-05-29T06:00:29;9.85;;;4.30;;
52170;SDS011;38689;47.552;18.820;2023-05-29T06:02:55;5.72;;;3.70;;
52170;SDS011;38689;47.552;18.820;2023-05-29T06:05:21;8.88;;;4.07;;
52170;SDS011;38689;47.552;18.820;2023-05-29T06:07:47;6.07;;;3.95;;
52170;SDS011;38689;47.552;18.820;2023-05-29T06:10:13;7.15;;;3.97;;
52170;SDS011;38689;47.552;18.820;2023-05-29T06:12:40;7.03;;;3.95;;
52170;SDS011;38689;47.552;18.820;2023-05-29T06:15:06;5.68;;;3.45;;
52170;SDS011;38689;47.552;18.820;2023-05-29T06:17:32;5.68;;;3.50;;
52170;SDS011;38689;47.552;18.820;2023-05-29T06:19:59;7.30;;;3.67;;
52170;SDS011;38689;47.552;18.820;2023-05-29T06:22:26;6.57;;;3.90;;
52170;SDS011;38689;47.552;18.820;2023-05-29T06:24:52;6.97;;;3.62;;
52170;SDS011;38689;47.552;18.820;2023-05-29T06:27:18;7.40;;;3.70;;
52170;SDS011;38689;47.552;18.820;2023-05-29T06:29:45;5.75;;;3.83;;
52170;SDS011;38689;47.552;18.820;2023-05-29T06:32:11;6.05;;;3.70;;
52170;SDS011;38689;47.552;18.820;2023-05-29T06:34:37;6.00;;;3.83;;
52170;SDS011;38689;47.552;18.820;2023-05-29T06:37:03;5.72;;;3.50;;
52170;SDS011;38689;47.552;18.820;2023-05-29T06:39:29;6.68;;;3.80;;
52170;SDS011;38689;47.552;18.820;2023-05-29T06:41:55;6.82;;;3.80;;
52170;SDS011;38689;47.552;18.820;2023-05-29T06:44:21;7.05;;;3.60;;
52170;SDS011;38689;47.552;18.820;2023-05-29T06:46:47;7.07;;;3.83;;
52170;SDS011;38689;47.552;18.820;2023-05-29T06:49:13;7.93;;;3.87;;
52170;SDS011;38689;47.552;18.820;2023-05-29T06:51:39;6.55;;;3.58;;
52170;SDS011;38689;47.552;18.820;2023-05-29T06:54:05;5.80;;;3.70;;
52170;SDS011;38689;47.552;18.820;2023-05-29T06:56:32;7.00;;;3.50;;
52170;SDS011;38689;47.552;18.820;2023-05-29T06:58:58;5.93;;;3.37;;
52170;SDS011;38689;47.552;18.820;2023-05-29T07:01:24;7.28;;;3.62;;
52170;SDS011;38689;47.552;18.820;2023-05-29T07:03:53;6.75;;;3.80;;
52170;SDS011;38689;47.552;18.820;2023-05-29T07:06:19;5.40;;;3.53;;
52170;SDS011;38689;47.552;18.820;2023-05-29T07:08:46;5.90;;;3.40;;
52170;SDS011;38689;47.552;18.820;2023-05-29T07:11:12;6.12;;;3.20;;
52170;SDS011;38689;47.552;18.820;2023-05-29T07:13:38;6.20;;;3.60;;
52170;SDS011;38689;47.552;18.820;2023-05-29T07:16:04;5.03;;;3.37;;
52170;SDS011;38689;47.552;18.820;2023-05-29T07:18:30;6.25;;;3.53;;
52170;SDS011;38689;47.552;18.820;2023-05-29T07:20:56;6.55;;;3.45;;
52170;SDS011;38689;47.552;18.820;2023-05-29T07:23:23;6.30;;;3.42;;
52170;SDS011;38689;47.552;18.820;2023-05-29T07:25:49;7.62;;;3.20;;
52170;SDS011;38689;47.552;18.820;2023-05-29T07:28:16;5.55;;;3.42;;
52170;SDS011;38689;47.552;18.820;2023-05-29T07:30:42;6.07;;;3.50;;
52170;SDS011;38689;47.552;18.820;2023-05-29T07:33:08;6.90;;;3.67;;
52170;SDS011;38689;47.552;18.820;2023-05-29T07:35:34;8.73;;;3.75;;
52170;SDS011;38689;47.552;18.820;2023-05-29T07:38:00;5.85;;;3.80;;
52170;SDS011;38689;47.552;18.820;2023-05-29T07:40:26;6.85;;;3.65;;
52170;SDS011;38689;47.552;18.820;2023-05-29T07:42:52;5.10;;;3.50;;
52170;SDS011;38689;47.552;18.820;2023-05-29T07:45:18;10.20;;;3.62;;
52170;SDS011;38689;47.552;18.820;2023-05-29T07:47:45;6.22;;;3.50;;
52170;SDS011;38689;47.552;18.820;2023-05-29T07:50:11;7.50;;;3.65;;
52170;SDS011;38689;47.552;18.820;2023-05-29T07:52:38;6.68;;;3.50;;
52170;SDS011;38689;47.552;18.820;2023-05-29T07:55:04;6.43;;;3.20;;
52170;SDS011;38689;47.552;18.820;2023-05-29T07:57:31;7.40;;;3.65;;
52170;SDS011;38689;47.552;18.820;2023-05-29T07:59:57;6.10;;;3.40;;
52170;SDS011;38689;47.552;18.820;2023-05-29T08:02:23;5.95;;;3.58;;
52170;SDS011;38689;47.552;18.820;2023-05-29T08:04:49;5.18;;;3.53;;
52170;SDS011;38689;47.552;18.820;2023-05-29T08:07:15;7.22;;;3.83;;
52170;SDS011;38689;47.552;18.820;2023-05-29T08:09:41;6.70;;;3.70;;
52170;SDS011;38689;47.552;18.820;2023-05-29T08:12:07;7.80;;;3.60;;
52170;SDS011;38689;47.552;18.820;2023-05-29T08:14:33;5.80;;;3.75;;
52170;SDS011;38689;47.552;18.820;2023-05-29T08:17:00;7.35;;;3.45;;
52170;SDS011;38689;47.552;18.820;2023-05-29T08:19:28;8.13;;;4.00;;
52170;SDS011;38689;47.552;18.820;2023-05-29T08:21:54;5.82;;;3.42;;
52170;SDS011;38689;47.552;18.820;2023-05-29T08:24:20;7.97;;;3.60;;
52170;SDS011;38689;47.552;18.820;2023-05-29T08:26:46;7.03;;;3.55;;
52170;SDS011;38689;47.552;18.820;2023-05-29T08:29:12;7.78;;;3.60;;
52170;SDS011;38689;47.552;18.820;2023-05-29T08:31:38;8.02;;;3.75;;
52170;SDS011;38689;47.552;18.820;2023-05-29T08:34:04;6.35;;;3.45;;
52170;SDS011;38689;47.552;18.820;2023-05-29T08:36:32;6.75;;;3.40;;
52170;SDS011;38689;47.552;18.820;2023-05-29T08:38:58;5.30;;;3.42;;
52170;SDS011;38689;47.552;18.820;2023-05-29T08:41:50;6.50;;;3.17;;
52170;SDS011;38689;47.552;18.820;2023-05-29T08:44:30;7.43;;;3.33;;
52170;SDS011;38689;47.552;18.820;2023-05-29T08:47:02;5.50;;;3.47;;
52170;SDS011;38689;47.552;18.820;2023-05-29T08:49:29;6.95;;;3.62;;
52170;SDS011;38689;47.552;18.820;2023-05-29T08:52:19;5.28;;;3.05;;
52170;SDS011;38689;47.552;18.820;2023-05-29T08:54:47;8.27;;;3.80;;
52170;SDS011;38689;47.552;18.820;2023-05-29T08:57:14;5.57;;;3.42;;
52170;SDS011;38689;47.552;18.820;2023-05-29T08:59:42;6.30;;;3.35;;
52170;SDS011;38689;47.552;18.820;2023-05-29T09:02:09;4.65;;;2.90;;
52170;SDS011;38689;47.552;18.820;2023-05-29T09:04:36;6.20;;;3.17;;
52170;SDS011;38689;47.552;18.820;2023-05-29T09:07:02;4.70;;;2.70;;
52170;SDS011;38689;47.552;18.820;2023-05-29T09:09:29;7.55;;;3.20;;
52170;SDS011;38689;47.552;18.820;2023-05-29T09:11:57;6.00;;;2.90;;
52170;SDS011;38689;47.552;18.820;2023-05-29T09:14:43;5.45;;;3.10;;
52170;SDS011;38689;47.552;18.820;2023-05-29T09:17:10;4.80;;;2.95;;
52170;SDS011;38689;47.552;18.820;2023-05-29T09:19:37;6.00;;;2.92;;
52170;SDS011;38689;47.552;18.820;2023-05-29T09:22:06;7.95;;;3.87;;
52170;SDS011;38689;47.552;18.820;2023-05-29T09:24:37;7.10;;;4.00;;
52170;SDS011;38689;47.552;18.820;2023-05-29T09:27:04;6.75;;;3.92;;
52170;SDS011;38689;47.552;18.820;2023-05-29T09:29:31;23.48;;;3.33;;
52170;SDS011;38689;47.552;18.820;2023-05-29T09:31:58;9.02;;;4.50;;
52170;SDS011;38689;47.552;18.820;2023-05-29T09:34:25;5.95;;;3.42;;
52170;SDS011;38689;47.552;18.820;2023-05-29T09:37:01;8.63;;;2.97;;
52170;SDS011;38689;47.552;18.820;2023-05-29T09:39:55;6.53;;;3.42;;
52170;SDS011;38689;47.552;18.820;2023-05-29T09:42:20;6.55;;;3.15;;
52170;SDS011;38689;47.552;18.820;2023-05-29T09:44:49;5.50;;;2.97;;
52170;SDS011;38689;47.552;18.820;2023-05-29T09:47:19;6.22;;;2.78;;
52170;SDS011;38689;47.552;18.820;2023-05-29T09:49:45;5.57;;;3.00;;
52170;SDS011;38689;47.552;18.820;2023-05-29T09:52:15;5.90;;;2.85;;
52170;SDS011;38689;47.552;18.820;2023-05-29T09:54:46;4.87;;;2.60;;
52170;SDS011;38689;47.552;18.820;2023-05-29T09:57:13;7.60;;;3.08;;
52170;SDS011;38689;47.552;18.820;2023-05-29T09:59:43;7.43;;;3.30;;
52170;SDS011;38689;47.552;18.820;2023-05-29T10:02:17;4.90;;;3.00;;
52170;SDS011;38689;47.552;18.820;2023-05-29T10:04:43;5.30;;;2.75;;
52170;SDS011;38689;47.552;18.820;2023-05-29T10:07:20;7.28;;;2.92;;
52170;SDS011;38689;47.552;18.820;2023-05-29T10:09:47;5.53;;;3.05;;
52170;SDS011;38689;47.552;18.820;2023-05-29T10:12:16;5.90;;;2.85;;
52170;SDS011;38689;47.552;18.820;2023-05-29T10:14:49;5.50;;;2.83;;
52170;SDS011;38689;47.552;18.820;2023-05-29T10:17:15;5.97;;;2.70;;
52170;SDS011;38689;47.552;18.820;2023-05-29T10:19:44;5.65;;;2.72;;
52170;SDS011;38689;47.552;18.820;2023-05-29T10:22:12;8.40;;;2.85;;
52170;SDS011;38689;47.552;18.820;2023-05-29T10:24:39;6.25;;;3.00;;
52170;SDS011;38689;47.552;18.820;2023-05-29T10:27:05;5.40;;;2.85;;
52170;SDS011;38689;47.552;18.820;2023-05-29T10:29:39;6.62;;;2.78;;
52170;SDS011;38689;47.552;18.820;2023-05-29T10:40:25;5.37;;;2.65;;
52170;SDS011;38689;47.552;18.820;2023-05-29T10:42:52;9.27;;;3.10;;
52170;SDS011;38689;47.552;18.820;2023-05-29T10:47:56;8.18;;;3.80;;
52170;SDS011;38689;47.552;18.820;2023-05-29T10:50:45;7.50;;;3.62;;
52170;SDS011;38689;47.552;18.820;2023-05-29T10:53:25;5.43;;;3.28;;
52170;SDS011;38689;47.552;18.820;2023-05-29T10:55:53;7.60;;;4.12;;
52170;SDS011;38689;47.552;18.820;2023-05-29T10:58:22;7.45;;;3.97;;
52170;SDS011;38689;47.552;18.820;2023-05-29T11:00:50;5.78;;;3.67;;
52170;SDS011;38689;47.552;18.820;2023-05-29T11:03:22;8.10;;;4.03;;
52170;SDS011;38689;47.552;18.820;2023-05-29T11:05:58;8.20;;;3.72;;
52170;SDS011;38689;47.552;18.820;2023-05-29T11:11:14;7.00;;;3.60;;
52170;SDS011;38689;47.552;18.820;2023-05-29T11:13:41;8.05;;;3.83;;
52170;SDS011;38689;47.552;18.820;2023-05-29T11:18:44;7.65;;;3.85;;
52170;SDS011;38689;47.552;18.820;2023-05-29T11:23:58;8.55;;;4.35;;
52170;SDS011;38689;47.552;18.820;2023-05-29T11:26:28;7.18;;;3.65;;
52170;SDS011;38689;47.552;18.820;2023-05-29T11:28:59;7.62;;;3.75;;
52170;SDS011;38689;47.552;18.820;2023-05-29T11:31:26;6.30;;;4.00;;
52170;SDS011;38689;47.552;18.820;2023-05-29T11:33:54;11.63;;;3.80;;
52170;SDS011;38689;47.552;18.820;2023-05-29T11:36:22;7.87;;;4.10;;
52170;SDS011;38689;47.552;18.820;2023-05-29T11:38:48;6.12;;;2.70;;
52170;SDS011;38689;47.552;18.820;2023-05-29T11:41:17;5.68;;;2.55;;
52170;SDS011;38689;47.552;18.820;2023-05-29T11:43:43;6.45;;;2.80;;
52170;SDS011;38689;47.552;18.820;2023-05-29T11:46:17;6.37;;;2.90;;
52170;SDS011;38689;47.552;18.820;2023-05-29T11:48:45;7.45;;;2.85;;
52170;SDS011;38689;47.552;18.820;2023-05-29T11:51:14;7.28;;;3.33;;
52170;SDS011;38689;47.552;18.820;2023-05-29T11:53:41;9.40;;;3.42;;
52170;SDS011;38689;47.552;18.820;2023-05-29T11:56:10;5.95;;;3.70;;
52170;SDS011;38689;47.552;18.820;2023-05-29T11:58:37;10.23;;;3.97;;
52170;SDS011;38689;47.552;18.820;2023-05-29T12:01:04;7.53;;;3.90;;
52170;SDS011;38689;47.552;18.820;2023-05-29T12:03:41;7.22;;;3.70;;
52170;SDS011;38689;47.552;18.820;2023-05-29T12:06:09;6.07;;;3.95;;
52170;SDS011;38689;47.552;18.820;2023-05-29T12:08:36;8.65;;;3.92;;
52170;SDS011;38689;47.552;18.820;2023-05-29T12:11:02;5.47;;;3.78;;
52170;SDS011;38689;47.552;18.820;2023-05-29T12:13:29;6.75;;;4.03;;
52170;SDS011;38689;47.552;18.820;2023-05-29T12:15:59;6.37;;;3.80;;
52170;SDS011;38689;47.552;18.820;2023-05-29T12:18:28;8.65;;;3.87;;
52170;SDS011;38689;47.552;18.820;2023-05-29T12:21:01;6.40;;;3.62;;
52170;SDS011;38689;47.552;18.820;2023-05-29T12:23:29;5.20;;;3.47;;
52170;SDS011;38689;47.552;18.820;2023-05-29T12:25:56;7.60;;;3.87;;
52170;SDS011;38689;47.552;18.820;2023-05-29T12:28:22;4.80;;;3.50;;
52170;SDS011;38689;47.552;18.820;2023-05-29T12:30:49;8.48;;;3.53;;
52170;SDS011;38689;47.552;18.820;2023-05-29T12:33:25;6.78;;;3.80;;
52170;SDS011;38689;47.552;18.820;2023-05-29T12:36:03;6.25;;;3.65;;
52170;SDS011;38689;47.552;18.820;2023-05-29T12:38:30;6.47;;;3.58;;
52170;SDS011;38689;47.552;18.820;2023-05-29T12:40:56;6.87;;;3.62;;
52170;SDS011;38689;47.552;18.820;2023-05-29T12:43:22;6.93;;;3.60;;
52170;SDS011;38689;47.552;18.820;2023-05-29T12:45:53;6.87;;;3.67;;
52170;SDS011;38689;47.552;18.820;2023-05-29T12:50:51;7.75;;;3.62;;
52170;SDS011;38689;47.552;18.820;2023-05-29T12:53:17;6.18;;;3.92;;
52170;SDS011;38689;47.552;18.820;2023-05-29T12:55:43;5.97;;;3.10;;
52170;SDS011;38689;47.552;18.820;2023-05-29T12:58:11;6.28;;;2.90;;
52170;SDS011;38689;47.552;18.820;2023-05-29T13:00:39;5.78;;;2.90;;
52170;SDS011;38689;47.552;18.820;2023-05-29T13:03:07;4.93;;;2.72;;
52170;SDS011;38689;47.552;18.820;2023-05-29T13:05:34;5.20;;;2.47;;
52170;SDS011;38689;47.552;18.820;2023-05-29T13:08:00;5.32;;;3.03;;
52170;SDS011;38689;47.552;18.820;2023-05-29T13:10:27;8.00;;;2.50;;
52170;SDS011;38689;47.552;18.820;2023-05-29T13:12:54;5.15;;;2.97;;
52170;SDS011;38689;47.552;18.820;2023-05-29T13:15:21;5.45;;;2.87;;
52170;SDS011;38689;47.552;18.820;2023-05-29T13:17:48;5.30;;;3.05;;
52170;SDS011;38689;47.552;18.820;2023-05-29T13:20:15;7.03;;;2.50;;
52170;SDS011;38689;47.552;18.820;2023-05-29T13:22:42;3.85;;;2.42;;
52170;SDS011;38689;47.552;18.820;2023-05-29T13:25:16;5.70;;;2.50;;
52170;SDS011;38689;47.552;18.820;2023-05-29T13:31:10;5.28;;;3.12;;
52170;SDS011;38689;47.552;18.820;2023-05-29T13:33:35;7.18;;;3.70;;
52170;SDS011;38689;47.552;18.820;2023-05-29T13:36:01;7.32;;;3.67;;
52170;SDS011;38689;47.552;18.820;2023-05-29T13:38:28;5.50;;;3.62;;
52170;SDS011;38689;47.552;18.820;2023-05-29T13:40:54;6.00;;;4.05;;
52170;SDS011;38689;47.552;18.820;2023-05-29T13:43:20;5.50;;;3.72;;
52170;SDS011;38689;47.552;18.820;2023-05-29T13:45:46;5.22;;;3.58;;
52170;SDS011;38689;47.552;18.820;2023-05-29T13:48:12;5.45;;;3.50;;
52170;SDS011;38689;47.552;18.820;2023-05-29T13:50:38;6.10;;;3.83;;
52170;SDS011;38689;47.552;18.820;2023-05-29T13:53:03;5.87;;;2.95;;
52170;SDS011;38689;47.552;18.820;2023-05-29T13:55:30;4.53;;;2.65;;
52170;SDS011;38689;47.552;18.820;2023-05-29T13:57:56;4.75;;;3.03;;
52170;SDS011;38689;47.552;18.820;2023-05-29T14:00:23;5.80;;;3.00;;
52170;SDS011;38689;47.552;18.820;2023-05-29T14:02:49;5.97;;;3.00;;
52170;SDS011;38689;47.552;18.820;2023-05-29T14:05:15;7.03;;;2.85;;
52170;SDS011;38689;47.552;18.820;2023-05-29T14:07:41;5.20;;;2.97;;
52170;SDS011;38689;47.552;18.820;2023-05-29T14:10:07;5.68;;;3.58;;
52170;SDS011;38689;47.552;18.820;2023-05-29T14:12:33;6.10;;;4.03;;
52170;SDS011;38689;47.552;18.820;2023-05-29T14:14:59;6.43;;;3.87;;
52170;SDS011;38689;47.552;18.820;2023-05-29T14:17:25;6.37;;;3.53;;
52170;SDS011;38689;47.552;18.820;2023-05-29T14:19:51;6.57;;;4.03;;
52170;SDS011;38689;47.552;18.820;2023-05-29T14:22:17;5.25;;;3.60;;
52170;SDS011;38689;47.552;18.820;2023-05-29T14:24:43;6.20;;;3.05;;
52170;SDS011;38689;47.552;18.820;2023-05-29T14:27:09;8.13;;;3.28;;
52170;SDS011;38689;47.552;18.820;2023-05-29T14:29:35;5.62;;;3.15;;
52170;SDS011;38689;47.552;18.820;2023-05-29T14:32:01;4.65;;;2.78;;
52170;SDS011;38689;47.552;18.820;2023-05-29T14:34:27;6.25;;;3.05;;
52170;SDS011;38689;47.552;18.820;2023-05-29T14:36:53;6.50;;;3.30;;
52170;SDS011;38689;47.552;18.820;2023-05-29T14:39:19;4.50;;;2.83;;
52170;SDS011;38689;47.552;18.820;2023-05-29T14:41:45;7.40;;;3.40;;
52170;SDS011;38689;47.552;18.820;2023-05-29T14:44:11;6.85;;;2.80;;
52170;SDS011;38689;47.552;18.820;2023-05-29T14:46:38;5.68;;;3.10;;
52170;SDS011;38689;47.552;18.820;2023-05-29T14:49:03;6.28;;;3.42;;
52170;SDS011;38689;47.552;18.820;2023-05-29T14:51:31;6.45;;;3.00;;
52170;SDS011;38689;47.552;18.820;2023-05-29T14:53:57;7.32;;;3.25;;
52170;SDS011;38689;47.552;18.820;2023-05-29T14:56:23;8.48;;;3.20;;
52170;SDS011;38689;47.552;18.820;2023-05-29T14:58:49;6.57;;;3.08;;
52170;SDS011;38689;47.552;18.820;2023-05-29T15:01:15;5.95;;;3.28;;
52170;SDS011;38689;47.552;18.820;2023-05-29T15:03:41;7.55;;;3.30;;
52170;SDS011;38689;47.552;18.820;2023-05-29T15:06:08;6.70;;;4.07;;